Surat Thani, Thailand
Current Conditions -  °F | °C
As of 1:00 PM on Friday 24 Oct 2014 (Local Time) from VTSB Reporting Station
Broken Clouds Broken Clouds  
Wind Chill: 90°   Ceiling: 30000
Heat Index: 105°   Visibility: 6mi
Dew Point: 79°   Wind: 5mph
Humidity: 70%   Direction: 90°E
Pressure: 29.8"   Gusts: NA
Location:  9.14°N, 99.33°E
Report Text: VTSB 240600Z 09004KT 9999 SCT20 BKN300 32/26 Q1009 A2981
Loading
Personal Weather Stations






























Interactive Weather Map
Tropical Storm Tracking
New forecast layout! Learn more

10-Day Weather Forecast

Advertisements
Track Severe Weather on mobile